Douglas, WY (82633)

3:20 PM MDT on October 25, 2014 (GMT -0600)
Converse County | Change Station
CLOSE
Current Station
Airport
Location: Douglas,
Elevation: 4928 ft
Nearby Weather Stations

Elev 4928 ft 42.80 °N, 105.38 °W | Updated 27 minutes ago

Clear
Clear
81 °F
Feels Like 81 °F
N
14
Wind Variable Wind from SW
Gusts 23 mph

Today
High -- | Low -- °F
--% Chance of Precip.
Yesterday
High -- | Low -- °F
Precip. -- in
7:27 AM 6:03 PM
Waxing Crescent, 4% visible
Pressure 29.91 in
Visibility 10.0 miles
Clouds Clear
Dew Point 21 °F
Humidity 11%
Rainfall 0.00 in
Snow Depth Not available.
UV 3 out of 12
Pollen 2.50 out of 12
Air Quality Not available.
Flu Activity Sporadic
METAR KDGW 252053Z AUTO 22012G20KT 10SM CLR 27/M06 A3003 RMK AO2 SLP128 T02721061 58025

More Conditions Fewer Conditions

Pressure 29.91 in
Visibility 10.0 miles
Clouds Clear
Dew Point 21 °F
Humidity 11%
Rainfall 0.00 in
Snow Depth Not available.
UV 3 out of 12
Pollen 2.50 out of 12
Air Quality Not available.
Flu Activity Sporadic
METAR KDGW 252053Z AUTO 22012G20KT 10SM CLR 27/M06 A3003 RMK AO2 SLP128 T02721061 58025

More Conditions Fewer Conditions

10-Day Weather Forecast

Almanac

Astronomy

Oct. 25, 2014 Rise Set
Actual Time 7:27 AM MDT 6:03 PM MDT
Civil Twilight 6:58 AM MDT 6:32 PM MDT
Nautical Twilight 6:25 AM MDT 7:05 PM MDT
Astronomical Twilight 5:52 AM MDT 7:38 PM MDT
Moon 9:10 AM MDT 7:26 PM MDT
Length of Visible Light 11h 34m
Length of Day
10h 36m
Tomorrow will be 2m 42s shorter.
Waxing Crescent, 4% of the Moon is Illuminated
Today
Waxing Crescent
Oct 30
First Quarter
Nov 6
Full
Nov 14
Last Quarter
Nov 22
New

Today's Extremes

State Highs State Lows

Community

WunderPhotos

Upload Photos

1,765,001 photos uploaded!

Nearby

Snow Depth

Station Depth Elevation
Reno Hill 0 in 8500 ft
Windy Peak 0 in 7900 ft
Sand Lake 4 in 10050 ft
Crow Creek 0 in 8330 ft
Cinnabar Park 0 in 9690 ft

Earthquake Activity

City Distance Mag. Time & Date
No recent earthquake activity has been reported nearby.
Minimum magnitude displayed is 2.5.

Coastal Water Temperatures

Place Temperature
No Stations Reporting

Nearby Weather Stations